createdAt,value
2018-09-04T00:01:27.165Z,62.90
2018-09-04T00:03:56.067Z,63.03
2018-09-04T00:06:24.556Z,62.83
2018-09-04T00:08:53.039Z,63.63
2018-09-04T00:11:21.567Z,61.83
2018-09-04T00:13:50.046Z,61.33
2018-09-04T00:16:19.648Z,64.03
2018-09-04T00:18:48.124Z,65.67
2018-09-04T00:21:16.634Z,67.67
2018-09-04T00:23:45.100Z,65.77
2018-09-04T00:26:13.590Z,65.70
2018-09-04T00:28:42.083Z,67.97
2018-09-04T00:31:10.563Z,67.43
2018-09-04T00:33:39.066Z,75.03
2018-09-04T00:36:08.562Z,68.13
2018-09-04T00:38:37.021Z,70.63
2018-09-04T00:41:05.587Z,77.87
2018-09-04T00:43:34.078Z,74.07
2018-09-04T00:46:02.571Z,73.53
2018-09-04T00:48:31.058Z,69.27
2018-09-04T00:50:59.574Z,71.00
2018-09-04T00:53:28.296Z,72.10
2018-09-04T00:55:56.770Z,72.57
2018-09-04T00:58:25.351Z,74.37
2018-09-04T01:00:53.855Z,74.87
2018-09-04T01:03:22.353Z,76.60
2018-09-04T01:05:50.846Z,74.77
2018-09-04T01:08:19.599Z,74.60
2018-09-04T01:10:48.079Z,74.57
2018-09-04T01:13:16.570Z,77.43
2018-09-04T01:15:45.027Z,77.73
2018-09-04T01:18:13.538Z,83.47
2018-09-04T01:20:41.999Z,80.23
2018-09-04T01:23:10.697Z,83.20
2018-09-04T01:25:39.583Z,79.97
2018-09-04T01:28:09.106Z,81.07
2018-09-04T01:30:37.604Z,81.70
2018-09-04T01:33:06.186Z,87.40
2018-09-04T01:35:34.706Z,83.40
2018-09-04T01:38:03.239Z,82.07
2018-09-04T01:40:31.725Z,82.63
2018-09-04T01:43:00.223Z,79.70
2018-09-04T01:45:28.874Z,82.83
2018-09-04T01:47:57.474Z,88.93
2018-09-04T01:50:25.955Z,83.90
2018-09-04T01:52:55.282Z,80.73
2018-09-04T01:55:23.742Z,85.47
2018-09-04T01:57:52.214Z,84.87
2018-09-04T02:00:20.820Z,82.80
2018-09-04T02:02:49.291Z,88.27
2018-09-04T02:05:17.836Z,90.67
2018-09-04T02:07:46.315Z,96.13
2018-09-04T02:10:14.797Z,89.17
2018-09-04T02:12:43.343Z,91.27
2018-09-04T02:15:11.853Z,86.73
2018-09-04T02:17:40.337Z,89.90
2018-09-04T02:20:09.191Z,85.83
2018-09-04T02:22:38.053Z,90.00
2018-09-04T02:26:30.975Z,84.47
2018-09-04T02:28:59.443Z,85.50
2018-09-04T02:31:27.886Z,86.33
2018-09-04T02:33:56.352Z,93.43
2018-09-04T02:36:24.888Z,88.00
2018-09-04T02:38:53.413Z,91.97
2018-09-04T02:41:21.869Z,93.67
2018-09-04T02:43:50.330Z,91.63
2018-09-04T02:46:18.854Z,96.93
2018-09-04T02:48:47.355Z,93.70
2018-09-04T02:51:16.179Z,96.60
2018-09-04T02:53:45.090Z,104.87
2018-09-04T02:56:13.563Z,101.37
2018-09-04T02:58:42.041Z,97.23
2018-09-04T03:01:10.927Z,98.00
2018-09-04T03:03:39.398Z,107.00
2018-09-04T03:06:07.915Z,107.07
2018-09-04T03:08:36.742Z,99.07
2018-09-04T03:11:05.231Z,99.97
2018-09-04T03:13:34.140Z,106.20
2018-09-04T03:16:02.759Z,93.37
2018-09-04T03:18:31.232Z,99.30
2018-09-04T03:20:59.755Z,94.63
2018-09-04T03:23:28.226Z,99.10
2018-09-04T03:25:56.706Z,98.70
2018-09-04T03:28:25.173Z,108.27
2018-09-04T03:30:53.682Z,113.80
2018-09-04T03:33:22.166Z,108.30
2018-09-04T03:35:50.699Z,114.60
2018-09-04T03:38:19.510Z,111.93
2018-09-04T03:40:48.006Z,118.50
2018-09-04T03:43:16.475Z,120.13
2018-09-04T03:45:44.939Z,113.07
2018-09-04T03:48:13.520Z,103.20
2018-09-04T03:50:42.064Z,105.60
2018-09-04T03:53:10.567Z,104.30
2018-09-04T03:55:39.030Z,104.53
2018-09-04T03:58:07.510Z,109.13
2018-09-04T04:00:36.039Z,102.30
2018-09-04T04:03:05.228Z,108.63
2018-09-04T04:05:33.733Z,101.70
2018-09-04T04:08:02.242Z,105.27
2018-09-04T04:10:30.743Z,107.13
2018-09-04T04:12:59.243Z,108.73
2018-09-04T04:15:27.738Z,108.80
2018-09-04T04:17:56.239Z,99.07
2018-09-04T04:20:25.071Z,115.23
2018-09-04T04:22:53.582Z,107.63
2018-09-04T04:25:22.138Z,108.10
2018-09-04T04:27:50.632Z,105.17
2018-09-04T04:30:19.114Z,100.70
2018-09-04T04:32:47.648Z,114.57
2018-09-04T04:35:16.155Z,100.00
2018-09-04T04:37:44.628Z,100.87
2018-09-04T04:40:13.422Z,105.80
2018-09-04T04:42:42.047Z,100.13
2018-09-04T04:45:10.767Z,99.80
2018-09-04T04:47:44.531Z,98.23
2018-09-04T04:50:13.207Z,101.60
2018-09-04T04:52:41.891Z,101.43
2018-09-04T04:55:10.417Z,100.60
2018-09-04T04:57:38.949Z,100.87
2018-09-04T05:00:07.966Z,102.83
2018-09-04T05:02:36.663Z,104.97
2018-09-04T05:05:05.950Z,99.67
2018-09-04T05:07:34.575Z,111.20
2018-09-04T05:10:03.521Z,96.90
2018-09-04T05:12:32.383Z,96.47
2018-09-04T05:15:00.883Z,96.87
2018-09-04T05:17:29.394Z,89.73
2018-09-04T05:19:58.088Z,96.43
2018-09-04T05:22:26.580Z,93.93
2018-09-04T05:24:55.270Z,93.50
2018-09-04T05:27:23.785Z,92.93
2018-09-04T05:29:52.542Z,85.60
2018-09-04T05:32:29.279Z,85.40
2018-09-04T05:34:57.971Z,88.23
2018-09-04T05:37:26.683Z,85.67
2018-09-04T05:39:55.259Z,88.17
2018-09-04T05:42:30.594Z,86.50
2018-09-04T05:44:59.608Z,77.83
2018-09-04T05:47:32.773Z,82.47
2018-09-04T05:50:02.077Z,84.87
2018-09-04T05:52:30.539Z,84.20
2018-09-04T05:54:59.089Z,75.20
2018-09-04T05:57:27.615Z,73.30
2018-09-04T05:59:56.123Z,72.93
2018-09-04T06:02:24.706Z,79.30
2018-09-04T06:04:53.171Z,74.97
2018-09-04T06:07:22.086Z,69.20
2018-09-04T06:09:51.142Z,70.80
2018-09-04T06:12:20.163Z,73.40
2018-09-04T06:14:48.634Z,70.23
2018-09-04T06:17:17.106Z,73.13
2018-09-04T06:19:45.579Z,68.43
2018-09-04T06:22:14.042Z,66.57
2018-09-04T06:24:42.530Z,69.07
2018-09-04T06:27:11.058Z,65.33
2018-09-04T06:29:39.922Z,63.57
2018-09-04T06:32:08.563Z,64.47
2018-09-04T06:34:37.483Z,60.67
2018-09-04T06:37:06.391Z,60.90
2018-09-04T06:39:34.913Z,62.40
2018-09-04T06:42:04.063Z,59.87
2018-09-04T06:44:32.609Z,61.10
2018-09-04T06:47:01.118Z,62.27
2018-09-04T06:49:29.610Z,65.77
2018-09-04T06:51:58.146Z,61.67
2018-09-04T06:54:26.642Z,62.27
2018-09-04T06:56:55.308Z,62.57
2018-09-04T06:59:23.754Z,64.63
2018-09-04T07:01:52.252Z,62.60
2018-09-04T07:04:21.096Z,63.97
2018-09-04T07:06:49.568Z,62.83
2018-09-04T07:09:18.585Z,63.03
2018-09-04T07:11:47.064Z,60.53
2018-09-04T07:14:15.610Z,59.03
2018-09-04T07:16:44.183Z,60.30
2018-09-04T07:19:16.798Z,62.20
2018-09-04T07:21:45.310Z,59.40
2018-09-04T07:24:14.353Z,61.07
2018-09-04T07:26:43.715Z,60.23
2018-09-04T07:29:12.486Z,62.20
2018-09-04T07:31:41.238Z,61.70
2018-09-04T07:34:09.704Z,60.83
2018-09-04T07:36:38.192Z,59.50
2018-09-04T07:39:09.387Z,60.07
2018-09-04T07:41:37.885Z,52.00
2018-09-04T07:44:06.431Z,59.13
2018-09-04T07:46:35.090Z,59.00
2018-09-04T07:49:03.719Z,61.03
2018-09-04T07:51:32.298Z,55.63
2018-09-04T07:54:01.158Z,57.07
2018-09-04T07:56:29.614Z,59.20
2018-09-04T07:58:58.095Z,57.93
2018-09-04T08:01:26.596Z,58.67
2018-09-04T08:03:55.071Z,60.27
2018-09-04T08:06:23.537Z,60.30
2018-09-04T08:08:52.055Z,58.10
2018-09-04T08:11:20.527Z,57.80
2018-09-04T08:13:49.019Z,58.07
2018-09-04T08:16:17.534Z,60.13
2018-09-04T08:18:46.326Z,59.07
2018-09-04T08:21:14.874Z,57.13
2018-09-04T08:23:43.396Z,57.63
2018-09-04T08:26:12.449Z,58.70
2018-09-04T08:28:41.022Z,57.73
2018-09-04T08:31:09.732Z,58.37
2018-09-04T08:33:38.211Z,59.90
2018-09-04T08:36:07.050Z,53.97
2018-09-04T08:38:39.733Z,56.47
2018-09-04T08:41:08.247Z,58.07
2018-09-04T08:43:36.938Z,56.37
2018-09-04T08:46:05.470Z,57.57
2018-09-04T08:48:33.923Z,54.50
2018-09-04T08:51:02.407Z,54.43
2018-09-04T08:53:31.767Z,55.77
2018-09-04T08:56:00.566Z,55.33
2018-09-04T08:58:29.138Z,55.37
2018-09-04T09:00:58.130Z,54.77
2018-09-04T09:03:26.626Z,52.57
2018-09-04T09:05:55.131Z,54.40
2018-09-04T09:08:23.677Z,52.93
2018-09-04T09:10:52.344Z,54.90
2018-09-04T09:13:20.827Z,52.70
2018-09-04T09:15:49.507Z,51.33
2018-09-04T09:18:18.106Z,53.43
2018-09-04T09:20:46.595Z,51.33
2018-09-04T09:23:15.116Z,52.60
2018-09-04T09:25:43.766Z,50.07
2018-09-04T09:28:12.290Z,51.23
2018-09-04T09:30:40.830Z,49.17
2018-09-04T09:33:09.520Z,44.30
2018-09-04T09:35:38.011Z,48.80
2018-09-04T09:38:06.503Z,45.10
2018-09-04T09:40:35.005Z,45.10
2018-09-04T09:43:03.474Z,49.50
2018-09-04T09:45:31.954Z,48.17
2018-09-04T09:48:00.500Z,47.53
2018-09-04T09:50:28.996Z,46.97
2018-09-04T09:52:57.531Z,46.80
2018-09-04T09:55:26.180Z,42.80
2018-09-04T09:57:54.714Z,44.40
2018-09-04T10:00:28.563Z,45.17
2018-09-04T10:03:02.263Z,46.47
2018-09-04T10:05:30.771Z,46.50
2018-09-04T10:07:59.365Z,43.63
2018-09-04T10:10:27.980Z,44.00
2018-09-04T10:12:56.639Z,44.13
2018-09-04T10:15:25.139Z,43.93
2018-09-04T10:17:53.610Z,44.47
2018-09-04T10:20:22.106Z,45.03
2018-09-04T10:22:50.602Z,45.70
2018-09-04T10:25:19.146Z,44.10
2018-09-04T10:27:47.632Z,45.27
2018-09-04T10:30:16.112Z,43.80
2018-09-04T10:32:49.771Z,40.87
2018-09-04T10:35:18.394Z,42.37
2018-09-04T10:37:47.114Z,42.23
2018-09-04T10:40:20.966Z,38.50
2018-09-04T10:42:49.751Z,42.00
2018-09-04T10:45:23.448Z,42.13
2018-09-04T10:49:16.666Z,37.40
2018-09-04T10:51:45.226Z,35.60
2018-09-04T10:54:13.720Z,34.60
2018-09-04T10:56:42.262Z,35.80
2018-09-04T10:59:10.759Z,34.27
2018-09-04T11:01:41.115Z,32.47
2018-09-04T11:04:09.642Z,30.33
2018-09-04T11:06:38.188Z,30.67
2018-09-04T11:09:09.776Z,34.87
2018-09-04T11:11:39.412Z,35.43
2018-09-04T11:14:07.908Z,32.97
2018-09-04T11:16:36.788Z,32.83
2018-09-04T11:19:05.275Z,37.63
2018-09-04T11:21:33.770Z,33.43
2018-09-04T11:24:02.219Z,33.17
2018-09-04T11:26:30.690Z,38.27
2018-09-04T11:29:01.967Z,37.80
2018-09-04T11:31:30.455Z,34.73
2018-09-04T11:33:58.943Z,38.50
2018-09-04T11:36:27.430Z,35.77
2018-09-04T11:38:55.931Z,40.87
2018-09-04T11:41:24.895Z,41.40
2018-09-04T11:43:53.364Z,44.67
2018-09-04T11:46:21.863Z,41.00
2018-09-04T11:48:50.344Z,38.17
2018-09-04T11:51:18.842Z,34.40
2018-09-04T11:53:48.434Z,30.97
2018-09-04T11:56:20.870Z,38.83
2018-09-04T11:58:49.663Z,31.93
2018-09-04T12:01:20.453Z,30.87
2018-09-04T12:03:49.370Z,28.77
2018-09-04T12:06:17.830Z,23.33
2018-09-04T12:08:46.320Z,26.73
2018-09-04T12:11:14.794Z,22.97
2018-09-04T12:13:43.302Z,26.47
2018-09-04T12:16:11.782Z,23.50
2018-09-04T12:18:40.272Z,23.83
2018-09-04T12:21:10.713Z,22.53
2018-09-04T12:23:39.616Z,27.53
2018-09-04T12:27:32.762Z,25.40
2018-09-04T12:30:01.231Z,28.90
2018-09-04T12:32:30.074Z,30.40
2018-09-04T12:34:58.518Z,28.33
2018-09-04T12:37:26.983Z,24.50
2018-09-04T12:39:58.031Z,23.33
2018-09-04T12:42:28.295Z,29.57
2018-09-04T12:44:59.046Z,25.60
2018-09-04T12:47:27.559Z,27.07
2018-09-04T12:49:56.488Z,27.10
2018-09-04T12:52:24.994Z,28.90
2018-09-04T12:54:53.483Z,28.40
2018-09-04T12:57:21.967Z,25.07
2018-09-04T12:59:50.479Z,25.70
2018-09-04T13:02:19.142Z,21.90
2018-09-04T13:04:47.623Z,21.90
2018-09-04T13:07:16.088Z,20.37
2018-09-04T13:09:44.580Z,19.70
2018-09-04T13:12:13.083Z,19.97
2018-09-04T13:14:41.736Z,17.83
2018-09-04T13:17:10.329Z,21.33
2018-09-04T13:19:39.795Z,26.83
2018-09-04T13:22:08.653Z,20.27
2018-09-04T13:24:37.129Z,20.37
2018-09-04T13:27:05.694Z,19.10
2018-09-04T13:29:34.216Z,18.30
2018-09-04T13:32:02.937Z,19.93
2018-09-04T13:34:33.164Z,16.40
2018-09-04T13:37:01.799Z,18.27
2018-09-04T13:39:30.272Z,18.60
2018-09-04T13:41:58.756Z,19.50
2018-09-04T13:44:27.294Z,20.47
2018-09-04T13:46:55.815Z,21.07
2018-09-04T13:49:24.375Z,19.80
2018-09-04T13:51:53.340Z,18.17
2018-09-04T13:54:21.811Z,20.27
2018-09-04T13:56:50.257Z,19.47
2018-09-04T13:59:19.070Z,20.10
2018-09-04T14:01:47.564Z,21.83
2018-09-04T14:04:16.110Z,20.33
2018-09-04T14:06:44.801Z,21.20
2018-09-04T14:09:13.299Z,20.00
2018-09-04T14:11:41.781Z,20.03
2018-09-04T14:14:10.259Z,19.03
2018-09-04T14:16:43.152Z,19.17
2018-09-04T14:19:07.414Z,21.80
2018-09-04T14:21:35.907Z,20.57
2018-09-04T14:24:04.447Z,21.83
2018-09-04T14:26:32.943Z,21.50
2018-09-04T14:29:08.368Z,17.47
2018-09-04T14:31:29.942Z,17.23
2018-09-04T14:33:58.429Z,19.07
2018-09-04T14:36:26.987Z,18.13
2018-09-04T14:38:55.605Z,18.37
2018-09-04T14:41:24.114Z,19.37
2018-09-04T14:43:52.602Z,18.73
2018-09-04T14:46:21.059Z,20.57
2018-09-04T14:48:49.534Z,20.50
2018-09-04T14:51:18.044Z,22.77
2018-09-04T14:53:46.591Z,22.00
2018-09-04T14:56:15.067Z,18.73
2018-09-04T14:58:43.568Z,17.80
2018-09-04T15:01:12.043Z,18.47
2018-09-04T15:03:40.586Z,18.40
2018-09-04T15:06:09.091Z,16.57
2018-09-04T15:08:37.733Z,18.43
2018-09-04T15:11:06.222Z,15.60
2018-09-04T15:13:34.678Z,20.63
2018-09-04T15:16:03.139Z,23.67
2018-09-04T15:18:31.559Z,22.20
2018-09-04T15:20:59.971Z,23.70
2018-09-04T15:23:28.422Z,25.33
2018-09-04T15:25:56.919Z,25.63
2018-09-04T15:28:25.335Z,19.53
2018-09-04T15:30:53.754Z,19.47
2018-09-04T15:33:22.154Z,20.77
2018-09-04T15:35:51.411Z,17.87
2018-09-04T15:38:19.850Z,18.57
2018-09-04T15:40:48.324Z,17.33
2018-09-04T15:43:16.754Z,18.57
2018-09-04T15:45:45.577Z,17.40
2018-09-04T15:48:13.999Z,16.83
2018-09-04T15:50:42.419Z,17.77
2018-09-04T15:53:10.855Z,17.10
2018-09-04T15:55:39.290Z,19.60
2018-09-04T15:58:07.722Z,18.30
2018-09-04T16:00:36.162Z,17.60
2018-09-04T16:03:04.974Z,17.03
2018-09-04T16:05:33.456Z,19.37
2018-09-04T16:08:01.916Z,17.57
2018-09-04T16:10:30.450Z,17.87
2018-09-04T16:12:58.883Z,17.63
2018-09-04T16:15:27.350Z,15.87
2018-09-04T16:18:58.407Z,16.83
2018-09-04T16:21:26.854Z,18.37
2018-09-04T16:23:55.305Z,18.10
2018-09-04T16:26:23.755Z,17.80
2018-09-04T16:28:52.167Z,20.20
2018-09-04T16:31:20.599Z,17.40
2018-09-04T16:33:49.008Z,17.70
2018-09-04T16:36:17.479Z,18.13
2018-09-04T16:38:46.046Z,15.33
2018-09-04T16:41:14.493Z,16.97
2018-09-04T16:43:42.904Z,14.83
2018-09-04T16:46:11.350Z,9.13
2018-09-04T16:48:39.812Z,8.73
2018-09-04T16:51:08.374Z,10.23
2018-09-04T16:53:36.816Z,10.60
2018-09-04T16:56:05.614Z,13.07
2018-09-04T16:58:34.043Z,15.27
2018-09-04T17:01:02.466Z,13.23
2018-09-04T17:03:30.927Z,14.93
2018-09-04T17:05:59.368Z,14.33
2018-09-04T17:08:27.782Z,15.17
2018-09-04T17:10:56.226Z,14.73
2018-09-04T17:13:24.643Z,15.40
2018-09-04T17:15:53.071Z,15.23
2018-09-04T17:18:21.487Z,16.23
2018-09-04T17:20:49.925Z,17.43
2018-09-04T17:23:18.335Z,18.87
2018-09-04T17:25:46.763Z,16.40
2018-09-04T17:28:15.186Z,15.37
2018-09-04T17:30:43.614Z,14.50
2018-09-04T17:33:12.067Z,13.70
2018-09-04T17:35:40.839Z,16.47
2018-09-04T17:38:09.303Z,21.30
2018-09-04T17:40:37.862Z,16.80
2018-09-04T17:43:06.446Z,22.97
2018-09-04T17:45:34.883Z,17.27
2018-09-04T17:48:03.704Z,16.87
2018-09-04T17:50:32.315Z,15.57
2018-09-04T17:53:00.715Z,15.80
2018-09-04T17:55:29.134Z,16.67
2018-09-04T17:57:57.543Z,14.93
2018-09-04T18:00:25.993Z,11.93
2018-09-04T18:02:54.421Z,13.97
2018-09-04T18:05:22.826Z,12.47
2018-09-04T18:07:51.263Z,15.00
2018-09-04T18:10:19.662Z,15.03
2018-09-04T18:12:48.099Z,12.63
2018-09-04T18:15:16.535Z,12.50
2018-09-04T18:17:46.020Z,13.97
2018-09-04T18:20:14.462Z,11.53
2018-09-04T18:22:43.006Z,13.23
2018-09-04T18:25:11.436Z,16.90
2018-09-04T18:27:39.886Z,12.53
2018-09-04T18:30:08.621Z,12.93
2018-09-04T18:32:37.055Z,13.07
2018-09-04T18:35:05.873Z,13.43
2018-09-04T18:37:34.313Z,12.00
2018-09-04T18:40:02.730Z,12.60
2018-09-04T18:42:31.181Z,15.47
2018-09-04T18:44:59.654Z,13.07
2018-09-04T18:47:28.127Z,14.50
2018-09-04T18:49:56.562Z,14.53
2018-09-04T18:52:25.237Z,15.13
2018-09-04T18:54:53.686Z,14.03
2018-09-04T18:57:22.123Z,14.20
2018-09-04T18:59:50.541Z,14.60
2018-09-04T19:02:19.054Z,15.50
2018-09-04T19:04:47.474Z,16.67
2018-09-04T19:07:15.894Z,15.40
2018-09-04T19:09:44.355Z,17.03
2018-09-04T19:12:12.909Z,16.13
2018-09-04T19:14:41.335Z,23.50
2018-09-04T19:17:09.798Z,16.97
2018-09-04T19:19:38.271Z,18.53
2018-09-04T19:22:06.727Z,18.37
2018-09-04T19:24:35.518Z,18.10
2018-09-04T19:27:03.942Z,18.60
2018-09-04T19:29:32.386Z,18.97
2018-09-04T19:32:00.810Z,19.00
2018-09-04T19:34:29.242Z,18.40
2018-09-04T19:36:57.746Z,18.60
2018-09-04T19:39:26.191Z,19.50
2018-09-04T19:41:54.647Z,19.53
2018-09-04T19:44:23.064Z,18.43
2018-09-04T19:46:51.483Z,18.87
2018-09-04T19:49:19.963Z,20.10
2018-09-04T19:51:48.399Z,19.27
2018-09-04T19:54:16.831Z,19.70
2018-09-04T19:56:45.573Z,20.43
2018-09-04T19:59:14.027Z,20.03
2018-09-04T20:01:42.499Z,21.73
2018-09-04T20:04:10.919Z,23.70
2018-09-04T20:06:39.420Z,22.13
2018-09-04T20:09:07.914Z,23.30
2018-09-04T20:11:36.334Z,24.27
2018-09-04T20:14:04.818Z,24.93
2018-09-04T20:16:33.282Z,24.90
2018-09-04T20:19:01.795Z,25.00
2018-09-04T20:21:30.211Z,23.40
2018-09-04T20:23:58.659Z,21.57
2018-09-04T20:26:27.080Z,23.93
2018-09-04T20:28:55.534Z,24.70
2018-09-04T20:31:23.973Z,23.07
2018-09-04T20:33:52.427Z,23.90
2018-09-04T20:36:26.306Z,24.97
2018-09-04T20:38:54.985Z,23.30
2018-09-04T20:41:23.465Z,25.50
2018-09-04T20:43:51.977Z,26.30
2018-09-04T20:46:20.395Z,26.17
2018-09-04T20:48:48.848Z,23.00
2018-09-04T20:51:18.682Z,23.43
2018-09-04T20:53:50.907Z,22.80
2018-09-04T20:56:22.783Z,23.67
2018-09-04T20:59:02.781Z,22.77
2018-09-04T21:01:45.210Z,24.40
2018-09-04T21:04:24.895Z,24.03
2018-09-04T21:06:54.080Z,25.67
2018-09-04T21:09:33.412Z,24.60
2018-09-04T21:12:03.355Z,25.77
2018-09-04T21:14:32.156Z,25.93
2018-09-04T21:17:00.709Z,26.57
2018-09-04T21:19:30.323Z,27.17
2018-09-04T21:21:58.745Z,24.97
2018-09-04T21:24:27.176Z,24.57
2018-09-04T21:26:55.607Z,25.27
2018-09-04T21:29:24.069Z,23.43
2018-09-04T21:31:52.594Z,24.43
2018-09-04T21:34:21.374Z,25.00
2018-09-04T21:36:49.827Z,23.37
2018-09-04T21:39:18.410Z,25.43
2018-09-04T21:41:46.843Z,25.60
2018-09-04T21:44:15.295Z,24.33
2018-09-04T21:46:43.754Z,24.43
2018-09-04T21:49:12.191Z,24.37
2018-09-04T21:51:40.829Z,25.07
2018-09-04T21:54:09.223Z,25.37
2018-09-04T21:56:37.687Z,25.70
2018-09-04T21:59:06.713Z,26.20
2018-09-04T22:01:35.508Z,27.17
2018-09-04T22:04:03.969Z,26.87
2018-09-04T22:06:33.194Z,28.10
2018-09-04T22:09:01.591Z,27.80
2018-09-04T22:11:30.078Z,27.03
2018-09-04T22:13:58.467Z,28.67
2018-09-04T22:16:26.894Z,26.23
2018-09-04T22:18:56.010Z,27.27
2018-09-04T22:21:24.439Z,25.17
2018-09-04T22:23:52.954Z,24.23
2018-09-04T22:26:21.429Z,26.63
2018-09-04T22:28:49.860Z,26.23
2018-09-04T22:31:18.285Z,27.07
2018-09-04T22:33:46.697Z,26.90
2018-09-04T22:37:17.983Z,25.70
2018-09-04T22:39:46.394Z,26.87
2018-09-04T22:42:14.818Z,27.60
2018-09-04T22:44:43.318Z,29.30
2018-09-04T22:47:11.763Z,29.47
2018-09-04T22:49:44.410Z,30.47
2018-09-04T22:52:12.867Z,31.90
2018-09-04T22:54:41.663Z,32.53
2018-09-04T22:57:10.075Z,33.13
2018-09-04T22:59:38.511Z,37.77
2018-09-04T23:02:07.238Z,41.10
2018-09-04T23:04:35.822Z,46.50
2018-09-04T23:07:04.600Z,46.80
2018-09-04T23:09:33.038Z,48.63
2018-09-04T23:12:01.466Z,50.43
2018-09-04T23:14:29.882Z,56.67
2018-09-04T23:16:58.531Z,55.23
2018-09-04T23:19:26.943Z,59.80
2018-09-04T23:21:55.635Z,51.93
2018-09-04T23:24:24.040Z,53.60
2018-09-04T23:29:51.502Z,50.70
2018-09-04T23:32:20.012Z,50.00
2018-09-04T23:34:48.494Z,48.90
2018-09-04T23:37:16.931Z,48.47
2018-09-04T23:39:45.345Z,50.13
2018-09-04T23:42:13.766Z,48.20
2018-09-04T23:44:42.174Z,46.17
2018-09-04T23:47:10.611Z,43.97
2018-09-04T23:49:39.045Z,45.40
2018-09-04T23:52:07.584Z,44.57
2018-09-04T23:54:35.979Z,42.70
2018-09-04T23:57:04.480Z,43.73
2018-09-04T23:59:32.944Z,41.83
